Time;durP1;ratioP1;P1;durP2;ratioP2;P2;SDS_P1;SDS_P2;PMS_P1;PMS_P2;Temp;Humidity;BMP_temperature;BMP_pressure;BME280_temperature;BME280_humidity;BME280_pressure;Samples;Min_cycle;Max_cycle;Signal;HPM_P1;HPM_P2
2023/03/25 00:00:39;;;;;;;0.00;0.00;;;;;;;9.32;100.00;99698.59;10525280;28;20043;-80
2023/03/25 00:05:40;;;;;;;0.05;0.05;;;;;;;9.26;100.00;99687.41;10537896;28;20052;-80
2023/03/25 00:10:42;;;;;;;0.00;0.00;;;;;;;9.21;100.00;99687.34;10538314;28;20139;-79
2023/03/25 00:15:46;;;;;;;0.05;0.05;;;;;;;9.14;100.00;99682.97;10541890;28;20036;-79
2023/03/25 00:20:49;;;;;;;0.10;0.00;;;;;;;9.10;100.00;99681.19;10524027;28;20040;-79
2023/03/25 00:25:51;;;;;;;0.32;0.25;;;;;;;9.21;100.00;99670.22;10557832;28;20128;-78
2023/03/25 00:30:53;;;;;;;0.40;0.38;;;;;;;9.14;100.00;99668.41;10535484;28;20055;-79
2023/03/25 00:35:58;;;;;;;0.10;0.00;;;;;;;9.12;100.00;99667.53;10537319;28;20096;-79
2023/03/25 00:41:09;;;;;;;0.08;0.00;;;;;;;9.08;100.00;99662.34;10534164;28;20399;-79
2023/03/25 00:46:10;;;;;;;0.05;0.05;;;;;;;9.00;100.00;99655.41;10535858;28;20079;-79
2023/03/25 00:51:18;;;;;;;0.00;0.00;;;;;;;9.11;100.00;99644.38;10501440;28;20036;-79
2023/03/25 00:56:22;;;;;;;0.00;0.00;;;;;;;9.14;100.00;99647.84;10525929;28;20036;-80
2023/03/25 01:01:26;;;;;;;0.00;0.00;;;;;;;9.19;100.00;99646.22;10515219;28;20031;-78
2023/03/25 01:06:34;;;;;;;0.43;0.10;;;;;;;9.24;100.00;99647.97;10551017;28;20475;-80
2023/03/25 01:11:37;;;;;;;0.00;0.00;;;;;;;9.14;100.00;99660.72;10519438;28;20085;-79
2023/03/25 01:16:39;;;;;;;0.00;0.00;;;;;;;9.37;100.00;99670.38;10531245;28;20059;-79
2023/03/25 01:21:41;;;;;;;0.00;0.00;;;;;;;9.30;100.00;99668.59;10549570;28;20216;-79
2023/03/25 01:26:44;;;;;;;0.90;0.65;;;;;;;9.37;100.00;99683.25;10522796;28;20528;-79
2023/03/25 01:31:47;;;;;;;0.28;0.10;;;;;;;9.37;100.00;99701.22;10504955;28;20036;-79
2023/03/25 01:36:49;;;;;;;0.95;0.68;;;;;;;9.33;100.00;99704.63;10545196;28;20051;-79
2023/03/25 01:41:50;;;;;;;1.55;0.75;;;;;;;9.43;100.00;99700.44;10511999;28;20044;-79
2023/03/25 01:46:52;;;;;;;0.00;0.00;;;;;;;9.38;100.00;99699.53;10517168;28;20077;-79
2023/03/25 01:52:09;;;;;;;0.22;0.20;;;;;;;9.32;100.00;99702.91;10544796;28;20036;-79
2023/03/25 01:57:17;;;;;;;1.17;0.10;;;;;;;9.39;100.00;99724.38;10533885;28;20051;-79
2023/03/25 02:02:19;;;;;;;0.00;0.00;;;;;;;9.35;100.00;99713.19;10525228;28;20047;-79
2023/03/25 02:07:21;;;;;;;0.00;0.00;;;;;;;9.48;100.00;99719.34;10546577;27;20147;-78
2023/03/25 02:12:23;;;;;;;0.00;0.00;;;;;;;9.43;100.00;99726.16;10534095;28;20033;-79
2023/03/25 02:17:38;;;;;;;0.35;0.32;;;;;;;9.42;100.00;99737.28;10533723;28;20143;-81
2023/03/25 02:23:12;;;;;;;0.00;0.00;;;;;;;9.46;100.00;99742.47;10560474;28;20040;-80
2023/03/25 02:28:34;;;;;;;4.63;1.02;;;;;;;9.38;100.00;99735.53;10537386;28;20065;-79
2023/03/25 02:34:14;;;;;;;0.10;0.10;;;;;;;9.32;100.00;99728.59;10527908;28;20071;-80
2023/03/25 02:39:31;;;;;;;0.00;0.00;;;;;;;9.38;100.00;99723.53;10544803;28;20506;-79
2023/03/25 02:44:40;;;;;;;0.38;0.10;;;;;;;9.21;100.00;99731.88;10536912;28;20473;-80
2023/03/25 02:49:51;;;;;;;0.00;0.00;;;;;;;9.25;100.00;99717.38;10525347;28;20071;-79
2023/03/25 02:55:00;;;;;;;0.00;0.00;;;;;;;9.19;100.00;99728.47;10542542;28;20052;-78
2023/03/25 03:00:14;;;;;;;0.57;0.30;;;;;;;9.21;100.00;99711.31;10535141;28;20055;-79
2023/03/25 03:05:28;;;;;;;0.00;0.00;;;;;;;9.12;100.00;99700.06;10529214;28;20040;-79
2023/03/25 03:11:02;;;;;;;0.10;0.10;;;;;;;9.24;100.00;99694.22;10501435;28;20032;-80
2023/03/25 03:16:12;;;;;;;0.08;0.08;;;;;;;9.13;100.00;99684.66;10530192;28;20162;-79
2023/03/25 03:21:25;;;;;;;0.10;0.10;;;;;;;9.05;100.00;99700.00;10532190;28;20068;-78
2023/03/25 03:26:45;;;;;;;0.10;0.10;;;;;;;9.06;100.00;99700.84;10539817;28;20445;-79
2023/03/25 03:32:13;;;;;;;0.00;0.00;;;;;;;8.87;100.00;99695.50;10549987;28;20039;-80
2023/03/25 03:37:19;;;;;;;0.00;0.00;;;;;;;8.93;100.00;99669.03;10542513;28;20080;-78
2023/03/25 03:42:44;;;;;;;0.00;0.00;;;;;;;8.90;100.00;99663.84;10539398;28;20051;-77
2023/03/25 03:47:49;;;;;;;0.32;0.25;;;;;;;8.43;100.00;99641.78;10534288;28;20050;-78
2023/03/25 03:53:19;;;;;;;0.47;0.32;;;;;;;8.46;100.00;99600.75;10527483;28;20036;-78
2023/03/25 03:58:27;;;;;;;1.35;0.25;;;;;;;8.53;100.00;99601.75;10540473;28;20067;-78
2023/03/25 04:03:37;;;;;;;0.10;0.10;;;;;;;8.61;100.00;99592.44;10544887;28;20089;-78
2023/03/25 04:08:57;;;;;;;0.10;0.00;;;;;;;8.52;100.00;99593.19;10540472;28;20396;-79
2023/03/25 04:14:02;;;;;;;0.28;0.15;;;;;;;8.50;100.00;99573.44;10535099;28;20131;-78
2023/03/25 04:19:04;;;;;;;0.00;0.00;;;;;;;8.51;100.00;99573.50;10519825;28;20604;-78
2023/03/25 04:24:07;;;;;;;0.10;0.10;;;;;;;8.56;100.00;99576.97;10541960;28;20031;-79
2023/03/25 04:29:08;;;;;;;2.53;0.28;;;;;;;8.57;100.00;99583.84;10536395;28;20096;-79
2023/03/25 04:34:14;;;;;;;0.03;0.00;;;;;;;8.66;100.00;99597.63;10565064;28;20043;-79
2023/03/25 04:39:17;;;;;;;0.10;0.10;;;;;;;8.61;100.00;99604.41;10502964;28;20056;-80
2023/03/25 04:44:20;;;;;;;0.00;0.00;;;;;;;8.71;100.00;99601.13;10521923;28;20098;-79
2023/03/25 04:49:22;;;;;;;0.00;0.00;;;;;;;8.60;100.00;99608.69;10510424;28;20110;-80
2023/03/25 04:54:24;;;;;;;0.10;0.10;;;;;;;8.67;100.00;99604.50;10527490;28;20539;-79
2023/03/25 04:59:26;;;;;;;17.17;0.98;;;;;;;8.51;100.00;99593.16;10519148;28;20099;-79
2023/03/25 05:04:28;;;;;;;0.00;0.00;;;;;;;8.62;100.00;99596.72;10569500;28;20039;-79
2023/03/25 05:09:30;;;;;;;0.00;0.00;;;;;;;8.53;100.00;99592.31;10558941;28;20044;-79
2023/03/25 05:14:32;;;;;;;0.20;0.20;;;;;;;8.56;100.00;99566.69;10510996;28;20044;-79
2023/03/25 05:19:33;;;;;;;0.10;0.10;;;;;;;8.35;100.00;99545.88;10527143;28;20040;-79
2023/03/25 05:24:37;;;;;;;1.65;0.20;;;;;;;8.31;100.00;99531.25;10522170;28;20047;-79
2023/03/25 05:29:38;;;;;;;0.10;0.10;;;;;;;8.39;100.00;99529.66;10549753;28;20048;-77
2023/03/25 05:34:45;;;;;;;0.15;0.10;;;;;;;8.36;100.00;99543.31;10549723;28;20069;-78
2023/03/25 05:39:47;;;;;;;0.68;0.57;;;;;;;8.46;100.00;99543.44;10534228;28;20377;-79
2023/03/25 05:44:52;;;;;;;0.65;0.25;;;;;;;8.44;100.00;99534.84;10541948;28;20082;-80
2023/03/25 05:49:54;;;;;;;0.00;0.00;;;;;;;8.62;100.00;99547.06;10519090;28;20050;-79
2023/03/25 05:54:55;;;;;;;1.20;0.10;;;;;;;8.62;100.00;99562.47;10530841;28;20141;-78
2023/03/25 05:59:57;;;;;;;0.00;0.00;;;;;;;8.75;100.00;99572.03;10575286;28;20070;-78
2023/03/25 06:04:58;;;;;;;0.00;0.00;;;;;;;8.89;100.00;99585.06;10549780;28;20055;-78
2023/03/25 06:10:00;;;;;;;0.13;0.00;;;;;;;8.75;100.00;99613.13;10563957;28;20113;-78
2023/03/25 06:15:02;;;;;;;0.15;0.15;;;;;;;8.77;100.00;99596.06;10517638;28;20104;-78
2023/03/25 06:20:11;;;;;;;0.00;0.00;;;;;;;8.72;100.00;99623.38;10530421;28;20055;-77
2023/03/25 06:25:16;;;;;;;0.00;0.00;;;;;;;8.78;100.00;99633.72;10523708;28;20067;-78
2023/03/25 06:30:20;;;;;;;0.00;0.00;;;;;;;8.77;100.00;99637.13;10537618;28;20075;-79
2023/03/25 06:35:22;;;;;;;0.45;0.35;;;;;;;8.68;100.00;99643.03;10540039;28;20078;-78
2023/03/25 06:40:23;;;;;;;0.00;0.00;;;;;;;8.78;100.00;99653.44;10540308;28;20056;-80
2023/03/25 06:45:26;;;;;;;0.00;0.00;;;;;;;8.73;100.00;99661.06;10548044;28;20135;-77
2023/03/25 06:50:39;;;;;;;0.55;0.20;;;;;;;8.84;100.00;99674.03;10523900;28;20491;-78
2023/03/25 06:55:44;;;;;;;0.30;0.30;;;;;;;8.88;100.00;99680.94;10523733;28;20123;-77
2023/03/25 07:00:45;;;;;;;0.00;0.00;;;;;;;9.00;100.00;99687.94;10539499;28;20130;-77
2023/03/25 07:05:48;;;;;;;0.00;0.00;;;;;;;9.11;100.00;99688.94;10528367;28;20036;-78
2023/03/25 07:10:50;;;;;;;0.00;0.00;;;;;;;9.09;100.00;99707.72;10540196;28;20051;-78
2023/03/25 07:15:55;;;;;;;0.00;0.00;;;;;;;9.18;100.00;99702.72;10530348;28;20086;-78
2023/03/25 07:20:56;;;;;;;0.10;0.10;;;;;;;9.17;100.00;99726.69;10508217;28;20056;-78
2023/03/25 07:25:58;;;;;;;0.52;0.30;;;;;;;9.12;100.00;99742.03;10559818;28;20439;-79
2023/03/25 07:31:00;;;;;;;1.45;0.65;;;;;;;9.20;100.00;99755.00;10525612;28;20051;-78
2023/03/25 07:36:02;;;;;;;0.25;0.13;;;;;;;9.55;100.00;99774.28;10558816;28;20055;-78
2023/03/25 07:41:06;;;;;;;0.10;0.10;;;;;;;9.51;100.00;99781.94;10534788;28;20048;-78
2023/03/25 07:46:08;;;;;;;2.17;1.00;;;;;;;9.98;100.00;99782.47;10512906;28;20044;-78
2023/03/25 07:51:10;;;;;;;0.00;0.00;;;;;;;9.52;100.00;99788.81;10538493;28;20587;-79
2023/03/25 07:56:13;;;;;;;0.20;0.20;;;;;;;9.48;100.00;99797.34;10557169;28;20127;-77
2023/03/25 08:01:14;;;;;;;0.05;0.00;;;;;;;9.32;100.00;99785.16;10545596;28;20044;-77
2023/03/25 08:06:16;;;;;;;1.40;0.50;;;;;;;9.45;100.00;99768.19;10544427;28;20040;-78
2023/03/25 08:11:18;;;;;;;0.75;0.30;;;;;;;9.46;100.00;99769.88;10540503;28;20502;-79
2023/03/25 08:16:19;;;;;;;0.20;0.10;;;;;;;9.19;100.00;99777.28;10525829;28;20424;-76
2023/03/25 08:21:23;;;;;;;2.35;1.08;;;;;;;9.37;100.00;99798.91;10509156;28;20058;-77
2023/03/25 08:26:26;;;;;;;0.60;0.35;;;;;;;9.13;100.00;99790.03;10530337;28;20067;-76
2023/03/25 08:31:29;;;;;;;0.00;0.00;;;;;;;9.28;100.00;99789.38;10532240;28;20036;-78
2023/03/25 08:36:31;;;;;;;0.15;0.15;;;;;;;9.03;100.00;99755.63;10524441;28;20047;-79
2023/03/25 08:41:33;;;;;;;0.52;0.20;;;;;;;8.67;100.00;99709.78;10527487;28;20036;-78
2023/03/25 08:46:35;;;;;;;0.10;0.10;;;;;;;8.78;100.00;99654.28;10545887;28;20044;-78
2023/03/25 08:51:37;;;;;;;3.30;0.30;;;;;;;10.30;100.00;99625.75;10527973;28;20064;-78
2023/03/25 08:56:38;;;;;;;0.05;0.05;;;;;;;10.38;100.00;99661.88;10518534;28;20441;-79
2023/03/25 09:01:42;;;;;;;0.00;0.00;;;;;;;9.76;100.00;99699.94;10526550;28;20507;-78
2023/03/25 09:06:44;;;;;;;0.13;0.13;;;;;;;9.75;100.00;99707.66;10548026;28;20052;-83
2023/03/25 09:12:07;;;;;;;0.30;0.25;;;;;;;9.75;100.00;99729.06;10537125;28;20399;-85
2023/03/25 09:17:09;;;;;;;1.70;0.60;;;;;;;10.33;100.00;99727.88;10547364;28;20036;-83
2023/03/25 09:22:11;;;;;;;0.70;0.32;;;;;;;9.86;100.00;99720.63;10530392;28;20336;-82
2023/03/25 09:27:12;;;;;;;1.00;0.30;;;;;;;9.40;100.00;99721.84;10559345;28;20047;-83
2023/03/25 09:32:14;;;;;;;0.10;0.10;;;;;;;9.03;100.00;99693.13;10554894;28;20036;-83
2023/03/25 09:37:17;;;;;;;29.65;1.05;;;;;;;9.28;100.00;99654.84;10524802;28;20052;-84
2023/03/25 09:42:27;;;;;;;0.35;0.10;;;;;;;9.54;100.00;99629.41;10552212;28;20587;-84
2023/03/25 09:47:32;;;;;;;1.35;0.47;;;;;;;10.22;100.00;99631.69;10510922;28;20090;-85
2023/03/25 09:52:58;;;;;;;0.32;0.20;;;;;;;9.91;100.00;99652.06;10538570;28;20519;-85
2023/03/25 09:58:22;;;;;;;0.10;0.10;;;;;;;10.05;100.00;99673.59;10526627;28;20040;-83
2023/03/25 10:03:31;;;;;;;0.52;0.52;;;;;;;10.05;100.00;99685.63;10578571;27;20405;-85
2023/03/25 10:08:33;;;;;;;0.10;0.10;;;;;;;10.13;100.00;99715.72;10510117;28;20044;-83
2023/03/25 10:13:40;;;;;;;1.10;0.82;;;;;;;11.22;100.00;99716.41;10512760;28;20054;-84
2023/03/25 10:18:47;;;;;;;0.00;0.00;;;;;;;10.88;100.00;99757.50;10534144;28;20121;-84
2023/03/25 10:23:52;;;;;;;0.10;0.10;;;;;;;10.42;100.00;99792.34;10537386;28;20475;-83
2023/03/25 10:29:00;;;;;;;3.30;0.52;;;;;;;11.33;100.00;99786.06;10546394;28;20054;-84
2023/03/25 10:34:09;;;;;;;0.98;0.82;;;;;;;11.53;100.00;99792.22;10557480;27;20044;-82
2023/03/25 10:39:19;;;;;;;0.30;0.22;;;;;;;11.67;100.00;99830.94;10531620;28;20051;-83
2023/03/25 10:44:23;;;;;;;0.13;0.13;;;;;;;12.60;100.00;99818.28;10525776;28;20176;-83
2023/03/25 10:49:29;;;;;;;1.38;0.50;;;;;;;12.00;100.00;99846.56;10552354;27;20051;-83
2023/03/25 10:54:35;;;;;;;0.15;0.08;;;;;;;12.46;100.00;99836.34;10542997;28;20380;-83
2023/03/25 11:00:17;;;;;;;0.57;0.38;;;;;;;12.69;100.00;99827.75;10517964;28;20589;-83
2023/03/25 11:05:22;;;;;;;0.03;0.03;;;;;;;11.13;100.00;99843.56;10490909;28;20087;-85
2023/03/25 11:10:27;;;;;;;0.20;0.20;;;;;;;11.15;100.00;99799.72;10522136;28;20060;-83
2023/03/25 11:15:37;;;;;;;2.67;2.05;;;;;;;11.16;100.00;99804.03;10505094;28;20105;-84
2023/03/25 11:20:46;;;;;;;0.15;0.10;;;;;;;9.93;100.00;99831.31;10499788;28;20043;-82
2023/03/25 11:25:49;;;;;;;0.85;0.30;;;;;;;9.68;100.00;99783.88;10532921;28;20036;-82
2023/03/25 11:31:20;;;;;;;0.00;0.00;;;;;;;9.16;100.00;99738.69;10542539;28;20515;-80
2023/03/25 11:36:27;;;;;;;0.00;0.00;;;;;;;9.24;100.00;99686.53;10537849;28;20048;-77
2023/03/25 11:41:31;;;;;;;0.22;0.10;;;;;;;9.99;100.00;99635.81;10535944;28;20051;-78
2023/03/25 11:46:41;;;;;;;3.88;1.27;;;;;;;10.55;100.00;99619.91;10525754;28;20040;-76
2023/03/25 11:51:43;;;;;;;15.33;0.67;;;;;;;10.85;100.00;99623.47;10528206;28;20048;-76
2023/03/25 11:56:48;;;;;;;0.43;0.35;;;;;;;10.97;100.00;99641.59;10527748;28;20290;-76
2023/03/25 12:01:51;;;;;;;0.00;0.00;;;;;;;11.05;100.00;99660.53;10542024;28;20044;-76
2023/03/25 12:07:07;;;;;;;0.00;0.00;;;;;;;12.05;100.00;99696.00;10509332;28;20040;-76
2023/03/25 12:12:25;;;;;;;0.47;0.30;;;;;;;11.07;100.00;99772.19;10529431;28;20070;-78
2023/03/25 12:18:11;;;;;;;1.65;1.55;;;;;;;11.08;100.00;99804.84;10549517;28;20452;-77
2023/03/25 12:23:19;;;;;;;0.00;0.00;;;;;;;11.06;100.00;99829.75;10560044;28;20094;-76
2023/03/25 12:28:43;;;;;;;0.00;0.00;;;;;;;10.87;100.00;99820.19;10544913;28;20040;-78
2023/03/25 12:33:52;;;;;;;0.25;0.05;;;;;;;12.13;100.00;99804.47;10559983;28;20056;-77
2023/03/25 12:38:59;;;;;;;0.00;0.00;;;;;;;12.91;100.00;99833.78;10561445;28;20048;-76
2023/03/25 12:44:08;;;;;;;0.00;0.00;;;;;;;12.18;100.00;99850.91;10519600;28;20052;-75
2023/03/25 12:49:36;;;;;;;0.00;0.00;;;;;;;11.66;100.00;99852.44;10536572;28;20097;-76
2023/03/25 12:55:08;;;;;;;0.35;0.10;;;;;;;11.98;100.00;99858.63;10511595;28;20083;-78
2023/03/25 13:00:26;;;;;;;2.47;1.55;;;;;;;11.56;100.00;99881.63;10526431;28;20119;-79
2023/03/25 13:05:43;;;;;;;0.00;0.00;;;;;;;11.82;100.00;99898.94;10539599;28;20040;-78
2023/03/25 13:10:50;;;;;;;0.00;0.00;;;;;;;12.73;100.00;99906.13;10544596;28;20117;-78
2023/03/25 13:16:05;;;;;;;0.00;0.00;;;;;;;11.57;100.00;99927.22;10527995;28;20162;-76
2023/03/25 13:21:19;;;;;;;0.10;0.10;;;;;;;10.29;100.00;99932.94;10534997;28;20056;-79
2023/03/25 13:26:23;;;;;;;0.00;0.00;;;;;;;9.04;100.00;99877.28;10546972;28;20047;-80
2023/03/25 13:31:34;;;;;;;0.00;0.00;;;;;;;8.63;100.00;99798.72;10549703;28;20047;-79
2023/03/25 13:36:57;;;;;;;0.00;0.00;;;;;;;7.83;100.00;99772.50;10546409;28;20101;-78
2023/03/25 13:42:08;;;;;;;0.17;0.13;;;;;;;8.99;100.00;99719.59;10543398;28;20075;-77
2023/03/25 13:47:28;;;;;;;0.00;0.00;;;;;;;9.23;100.00;99677.06;10560383;28;20039;-78
2023/03/25 13:52:43;;;;;;;0.00;0.00;;;;;;;10.82;100.00;99634.63;10533459;28;20472;-77
2023/03/25 13:57:53;;;;;;;0.00;0.00;;;;;;;11.03;100.00;99663.91;10559959;28;20109;-79
2023/03/25 14:02:55;;;;;;;0.20;0.20;;;;;;;10.76;100.00;99697.28;10528718;28;20036;-77
2023/03/25 14:08:29;;;;;;;2.92;1.65;;;;;;;11.04;100.00;99696.56;10533099;28;20055;-78
2023/03/25 14:13:37;;;;;;;2.38;0.15;;;;;;;11.55;100.00;99733.72;10552663;28;20032;-78
2023/03/25 14:18:48;;;;;;;0.93;0.25;;;;;;;11.81;100.00;99748.44;10539593;28;20047;-80
2023/03/25 14:24:01;;;;;;;0.00;0.00;;;;;;;11.91;100.00;99811.25;10547837;28;20115;-80
2023/03/25 14:29:12;;;;;;;0.55;0.35;;;;;;;12.19;100.00;99857.81;10546282;28;20456;-79
2023/03/25 14:34:25;;;;;;;0.93;0.90;;;;;;;11.78;100.00;99887.75;10520040;28;20431;-76
2023/03/25 14:39:33;;;;;;;0.00;0.00;;;;;;;11.72;100.00;99903.22;10543449;28;20415;-79
2023/03/25 14:44:53;;;;;;;0.00;0.00;;;;;;;10.99;100.00;99909.63;10521703;28;20040;-80
2023/03/25 14:50:04;;;;;;;0.10;0.10;;;;;;;11.47;100.00;99930.59;10513898;28;20051;-79
2023/03/25 14:55:17;;;;;;;0.00;0.00;;;;;;;11.29;100.00;99970.00;10523021;28;20055;-78
2023/03/25 15:00:25;;;;;;;0.32;0.10;;;;;;;11.02;100.00;99972.34;10524658;28;20439;-80
2023/03/25 15:05:32;;;;;;;0.32;0.20;;;;;;;10.41;100.00;99955.41;10544145;28;20048;-80
2023/03/25 15:10:41;;;;;;;0.00;0.00;;;;;;;10.06;100.00;99924.06;10548153;28;20502;-81
2023/03/25 15:15:50;;;;;;;0.00;0.00;;;;;;;10.85;100.00;99882.03;10521502;28;20040;-78
2023/03/25 15:20:52;;;;;;;0.00;0.00;;;;;;;10.36;100.00;99931.31;10544534;28;20061;-80
2023/03/25 15:25:56;;;;;;;0.00;0.00;;;;;;;10.61;100.00;99914.44;10504355;28;20334;-79
2023/03/25 15:31:07;;;;;;;0.00;0.00;;;;;;;10.83;100.00;99908.63;10542984;28;20079;-79
2023/03/25 15:36:30;;;;;;;0.00;0.00;;;;;;;11.72;100.00;99908.38;10542226;28;20040;-79
2023/03/25 15:42:11;;;;;;;3.92;0.50;;;;;;;11.78;100.00;99907.56;10545299;28;20584;-79
2023/03/25 15:47:44;;;;;;;0.70;0.38;;;;;;;11.30;100.00;99887.50;10536669;28;20051;-79
2023/03/25 15:53:19;;;;;;;0.22;0.00;;;;;;;11.18;100.00;99905.47;10559333;27;20071;-79
2023/03/25 15:58:40;;;;;;;0.00;0.00;;;;;;;11.23;100.00;99973.38;10554206;28;20043;-78
2023/03/25 16:03:43;;;;;;;0.00;0.00;;;;;;;11.12;100.00;100004.22;10544916;28;20487;-80
2023/03/25 16:08:48;;;;;;;0.70;0.70;;;;;;;11.21;100.00;99993.13;10527709;28;20408;-79
2023/03/25 16:14:14;;;;;;;0.08;0.08;;;;;;;11.16;100.00;100051.53;10516133;28;20064;-79
2023/03/25 16:19:24;;;;;;;0.45;0.10;;;;;;;7.51;100.00;99995.72;10492698;28;20417;-80
2023/03/25 16:24:32;;;;;;;0.10;0.00;;;;;;;7.70;100.00;99903.88;10527223;28;20043;-77
2023/03/25 16:29:38;;;;;;;0.10;0.10;;;;;;;7.58;100.00;99889.94;10543797;28;20445;-79
2023/03/25 16:34:40;;;;;;;0.00;0.00;;;;;;;7.55;100.00;99842.88;10514013;28;20040;-79
2023/03/25 16:39:42;;;;;;;0.00;0.00;;;;;;;7.80;100.00;99820.31;10544388;28;20071;-79
2023/03/25 16:44:44;;;;;;;0.10;0.10;;;;;;;8.26;100.00;99793.78;10540140;28;20365;-76
2023/03/25 16:49:52;;;;;;;0.00;0.00;;;;;;;8.44;100.00;99788.94;10530098;28;20055;-76
2023/03/25 16:54:53;;;;;;;0.00;0.00;;;;;;;8.04;100.00;99801.94;10544956;28;20032;-76
2023/03/25 16:59:55;;;;;;;0.35;0.35;;;;;;;8.14;100.00;99793.59;10536400;28;20050;-75
2023/03/25 17:05:21;;;;;;;0.82;0.82;;;;;;;8.15;100.00;99805.59;10551860;28;20080;-76
2023/03/25 17:10:26;;;;;;;0.00;0.00;;;;;;;8.21;100.00;99815.94;10533345;28;20042;-76
2023/03/25 17:15:33;;;;;;;0.10;0.10;;;;;;;8.22;100.00;99821.94;10518261;28;20040;-76
2023/03/25 17:20:38;;;;;;;0.00;0.00;;;;;;;8.20;100.00;99842.44;10512592;28;20131;-77
2023/03/25 17:25:57;;;;;;;0.98;0.55;;;;;;;8.16;100.00;99848.34;10520927;28;20046;-76
2023/03/25 17:31:00;;;;;;;3.83;0.40;;;;;;;8.16;100.00;99873.16;10535243;28;20080;-76
2023/03/25 17:36:06;;;;;;;3.03;0.20;;;;;;;7.89;100.00;99833.31;10538759;28;20044;-76
2023/03/25 17:41:10;;;;;;;0.00;0.00;;;;;;;7.89;100.00;99811.09;10527054;28;20058;-78
2023/03/25 17:46:16;;;;;;;0.00;0.00;;;;;;;7.81;100.00;99809.22;10524871;28;20040;-76
2023/03/25 17:51:20;;;;;;;1.02;0.13;;;;;;;7.57;100.00;99816.44;10537372;28;20399;-77
2023/03/25 17:56:27;;;;;;;0.55;0.55;;;;;;;7.52;100.00;99818.03;10542424;28;20518;-76
2023/03/25 18:01:30;;;;;;;0.52;0.45;;;;;;;7.76;100.00;99806.56;10557681;28;20062;-75
2023/03/25 18:06:31;;;;;;;0.00;0.00;;;;;;;7.90;100.00;99819.63;10530130;28;20483;-76
2023/03/25 18:11:33;;;;;;;0.10;0.05;;;;;;;7.83;100.00;99835.72;10534315;28;20044;-76
2023/03/25 18:16:35;;;;;;;0.00;0.00;;;;;;;7.78;100.00;99844.22;10531745;28;20066;-77
2023/03/25 18:21:36;;;;;;;0.00;0.00;;;;;;;7.76;100.00;99857.84;10532153;28;20380;-76
2023/03/25 18:26:42;;;;;;;0.00;0.00;;;;;;;7.89;100.00;99870.06;10554520;28;20064;-76
2023/03/25 18:31:44;;;;;;;0.00;0.00;;;;;;;7.92;100.00;99890.66;10549596;28;20043;-77
2023/03/25 18:36:48;;;;;;;0.10;0.05;;;;;;;8.05;100.00;99890.91;10554137;28;20119;-76
2023/03/25 18:41:50;;;;;;;0.17;0.15;;;;;;;8.11;100.00;99911.53;10518266;28;20523;-77
2023/03/25 18:46:52;;;;;;;0.70;0.22;;;;;;;8.20;100.00;99901.47;10541518;28;20044;-76
2023/03/25 18:51:56;;;;;;;0.22;0.22;;;;;;;8.14;100.00;99896.22;10551440;27;20537;-77
2023/03/25 18:56:57;;;;;;;0.03;0.03;;;;;;;8.10;100.00;99885.03;10527939;28;20052;-78
2023/03/25 19:01:59;;;;;;;0.68;0.38;;;;;;;8.14;100.00;99891.09;10520432;28;20048;-77
2023/03/25 19:07:03;;;;;;;1.17;0.32;;;;;;;7.92;100.00;99911.19;10523238;28;20403;-76
2023/03/25 19:12:05;;;;;;;0.80;0.47;;;;;;;7.92;100.00;99918.88;10551177;28;20093;-77
2023/03/25 19:17:07;;;;;;;3.13;1.00;;;;;;;8.02;100.00;99926.72;10521028;28;20044;-77
2023/03/25 19:22:09;;;;;;;0.15;0.08;;;;;;;8.02;100.00;99937.88;10521371;28;20044;-76
2023/03/25 19:27:10;;;;;;;0.00;0.00;;;;;;;8.18;100.00;99925.38;10556473;28;20044;-77
2023/03/25 19:32:12;;;;;;;0.03;0.03;;;;;;;8.18;100.00;99927.94;10534141;28;20044;-76
2023/03/25 19:37:14;;;;;;;3.47;0.55;;;;;;;8.16;100.00;99925.31;10563875;28;20088;-76
2023/03/25 19:42:16;;;;;;;0.38;0.20;;;;;;;8.20;100.00;99939.94;10536951;28;20480;-76
2023/03/25 19:47:17;;;;;;;0.00;0.00;;;;;;;8.23;100.00;99957.94;10535113;28;20460;-76
2023/03/25 19:52:19;;;;;;;0.30;0.22;;;;;;;8.21;100.00;99993.00;10518491;28;20051;-76
2023/03/25 19:57:21;;;;;;;0.00;0.00;;;;;;;8.09;100.00;100016.69;10544218;28;20531;-77
2023/03/25 20:02:23;;;;;;;0.00;0.00;;;;;;;8.11;100.00;100026.97;10508411;28;20495;-77
2023/03/25 20:07:25;;;;;;;0.08;0.03;;;;;;;7.86;100.00;100025.56;10556318;28;20036;-77
2023/03/25 20:12:28;;;;;;;0.77;0.77;;;;;;;8.03;100.00;100023.38;10511324;28;20565;-78
2023/03/25 20:17:31;;;;;;;0.00;0.00;;;;;;;8.04;100.00;100018.28;10528491;28;20032;-77
2023/03/25 20:22:33;;;;;;;0.00;0.00;;;;;;;7.75;100.00;100015.94;10526548;28;20093;-77
2023/03/25 20:27:36;;;;;;;0.70;0.10;;;;;;;7.44;100.00;100004.09;10545239;28;20134;-77
2023/03/25 20:32:37;;;;;;;0.45;0.30;;;;;;;7.35;100.00;99998.72;10516495;28;20075;-77
2023/03/25 20:37:45;;;;;;;0.32;0.20;;;;;;;7.31;100.00;99987.53;10525952;28;20048;-77
2023/03/25 20:42:47;;;;;;;0.32;0.20;;;;;;;7.39;100.00;99977.50;10550696;28;20407;-78
2023/03/25 20:47:49;;;;;;;3.30;0.30;;;;;;;7.46;100.00;99966.56;10534220;28;20425;-77
2023/03/25 20:52:50;;;;;;;0.00;0.00;;;;;;;7.65;100.00;99956.72;10518968;28;20040;-77
2023/03/25 20:57:52;;;;;;;0.00;0.00;;;;;;;7.88;100.00;99941.84;10529309;28;20036;-77
2023/03/25 21:02:54;;;;;;;0.32;0.22;;;;;;;7.97;100.00;99933.47;10537995;28;20039;-77
2023/03/25 21:07:56;;;;;;;0.52;0.52;;;;;;;8.00;100.00;99936.97;10531091;28;20067;-77
2023/03/25 21:12:58;;;;;;;0.13;0.13;;;;;;;8.24;100.00;99928.91;10550474;28;20044;-77
2023/03/25 21:17:59;;;;;;;0.00;0.00;;;;;;;8.04;100.00;99935.34;10540692;28;20055;-77
2023/03/25 21:23:04;;;;;;;4.13;1.75;;;;;;;7.97;100.00;99938.59;10550245;28;20048;-77
2023/03/25 21:28:05;;;;;;;2.13;0.20;;;;;;;7.76;100.00;99940.75;10507982;28;20194;-77
2023/03/25 21:33:10;;;;;;;0.75;0.55;;;;;;;7.59;100.00;99942.94;10539506;28;20423;-77
2023/03/25 21:38:12;;;;;;;0.00;0.00;;;;;;;7.78;100.00;99943.34;10506745;28;20048;-76
2023/03/25 21:43:13;;;;;;;3.42;1.17;;;;;;;7.65;100.00;99941.34;10539411;28;20101;-77
2023/03/25 21:48:20;;;;;;;0.88;0.30;;;;;;;7.57;100.00;99944.59;10536384;28;20074;-76
2023/03/25 21:53:24;;;;;;;3.03;0.35;;;;;;;7.66;100.00;99943.94;10513127;28;20040;-76
2023/03/25 21:58:26;;;;;;;0.63;0.63;;;;;;;7.87;100.00;99938.41;10569608;27;20039;-76
2023/03/25 22:03:28;;;;;;;0.03;0.03;;;;;;;8.06;100.00;99949.91;10529034;28;20067;-77
2023/03/25 22:08:31;;;;;;;2.33;0.68;;;;;;;8.29;100.00;99951.22;10524504;28;20040;-77
2023/03/25 22:13:32;;;;;;;0.52;0.30;;;;;;;8.22;100.00;99953.69;10533872;28;20043;-77
2023/03/25 22:18:35;;;;;;;1.20;0.98;;;;;;;8.07;100.00;99961.06;10540421;28;20089;-77
2023/03/25 22:23:38;;;;;;;0.63;0.47;;;;;;;7.98;100.00;99968.56;10526684;28;20450;-77
2023/03/25 22:28:41;;;;;;;1.73;1.20;;;;;;;7.93;100.00;99983.84;10528923;28;20415;-77
2023/03/25 22:33:43;;;;;;;1.80;0.68;;;;;;;8.08;100.00;99973.03;10503227;28;20117;-77
2023/03/25 22:38:47;;;;;;;0.00;0.00;;;;;;;8.00;100.00;99984.84;10517176;28;20094;-77
2023/03/25 22:43:48;;;;;;;0.52;0.50;;;;;;;7.80;100.00;99995.53;10500382;28;20044;-77
2023/03/25 22:48:53;;;;;;;0.55;0.55;;;;;;;7.96;100.00;99990.72;10495846;28;20051;-77
2023/03/25 22:53:57;;;;;;;1.42;0.98;;;;;;;7.93;100.00;99994.94;10537067;28;20153;-76
2023/03/25 22:59:04;;;;;;;0.47;0.38;;;;;;;8.05;100.00;99986.66;10550238;28;20052;-78
2023/03/25 23:04:06;;;;;;;0.00;0.00;;;;;;;8.12;100.00;99979.97;10518212;28;20040;-77
2023/03/25 23:09:09;;;;;;;0.30;0.22;;;;;;;8.29;100.00;99977.75;10523704;28;20346;-77
2023/03/25 23:14:11;;;;;;;5.22;0.60;;;;;;;8.27;100.00;99997.38;10544365;28;20450;-78
2023/03/25 23:19:13;;;;;;;0.28;0.22;;;;;;;8.38;100.00;99997.59;10498385;28;20072;-77
2023/03/25 23:24:15;;;;;;;0.20;0.00;;;;;;;8.51;100.00;99989.34;10541987;27;20032;-77
2023/03/25 23:29:17;;;;;;;0.85;0.43;;;;;;;8.45;100.00;99994.31;10510190;28;20071;-77
2023/03/25 23:34:18;;;;;;;0.43;0.43;;;;;;;8.51;100.00;99999.63;10531450;28;20044;-77
2023/03/25 23:39:21;;;;;;;0.35;0.35;;;;;;;8.48;100.00;100004.69;10542190;28;20052;-76